Time;durP1;ratioP1;P1;durP2;ratioP2;P2;SDS_P1;SDS_P2;PMS_P1;PMS_P2;Temp;Humidity;BMP_temperature;BMP_pressure;BME280_temperature;BME280_humidity;BME280_pressure;Samples;Min_cycle;Max_cycle;Signal;HPM_P1;HPM_P2
2021/07/15 00:00:49;;;;;;;0.40;0.40;;;;;;;14.54;82.46;96442.88;29395;277;63009;-63
2021/07/15 00:01:21;;;;;;;0.40;0.40;;;;;;;14.54;82.93;96451.06;29417;267;63004;-62
2021/07/15 00:01:53;;;;;;;0.40;0.40;;;;;;;14.55;82.56;96455.41;29395;211;63009;-63
2021/07/15 00:02:24;;;;;;;0.40;0.40;;;;;;;14.56;82.42;96450.72;29395;336;63005;-62
2021/07/15 00:02:57;;;;;;;0.40;0.40;;;;;;;14.56;82.16;96454.25;29395;292;63009;-62
2021/07/15 00:03:29;;;;;;;0.40;0.40;;;;;;;14.56;82.54;96450.72;29394;358;64009;-61
2021/07/15 00:04:00;;;;;;;0.40;0.40;;;;;;;14.55;82.55;96460.88;29395;251;63009;-62
2021/07/15 00:04:32;;;;;;;0.40;0.40;;;;;;;14.54;82.56;96448.34;29395;226;63005;-60
2021/07/15 00:05:11;;;;;;;0.40;0.40;;;;;;;14.56;82.46;96456.97;29395;220;63009;-62
2021/07/15 00:05:43;;;;;;;0.40;0.40;;;;;;;14.58;82.44;96448.47;29395;233;63004;-64
2021/07/15 00:06:14;;;;;;;0.40;0.40;;;;;;;14.55;82.92;96449.94;29395;206;63009;-61
2021/07/15 00:06:46;;;;;;;0.40;0.40;;;;;;;14.53;83.20;96446.75;29395;219;63004;-61
2021/07/15 00:07:17;;;;;;;0.40;0.40;;;;;;;14.55;82.72;96444.50;29395;208;63009;-61
2021/07/15 00:07:49;;;;;;;0.40;0.40;;;;;;;14.56;83.43;96445.25;29395;202;63004;-60
2021/07/15 00:08:24;;;;;;;0.40;0.40;;;;;;;14.56;83.64;96453.44;29394;269;64013;-61
2021/07/15 00:08:57;;;;;;;0.40;0.40;;;;;;;14.54;84.00;96442.88;29395;219;63005;-60
2021/07/15 00:09:28;;;;;;;0.40;0.40;;;;;;;14.53;84.10;96446.75;29395;255;63009;-60
2021/07/15 00:09:59;;;;;;;0.40;0.40;;;;;;;14.51;84.63;96451.72;29395;248;63005;-60
2021/07/15 00:10:44;;;;;;;0.40;0.40;;;;;;;14.51;84.20;96446.28;29395;343;63009;-61
2021/07/15 00:11:17;;;;;;;0.40;0.40;;;;;;;14.50;84.54;96441.94;29395;258;63005;-60
2021/07/15 00:11:51;;;;;;;0.40;0.40;;;;;;;14.48;84.59;96444.19;29395;327;63009;-57
2021/07/15 00:12:22;;;;;;;0.40;0.40;;;;;;;14.46;84.89;96441.00;29395;342;63005;-60
2021/07/15 00:12:54;;;;;;;0.40;0.40;;;;;;;14.44;84.83;96443.25;29395;214;63019;-61
2021/07/15 00:13:26;;;;;;;0.40;0.40;;;;;;;14.43;84.88;96433.47;29394;221;64009;-60
2021/07/15 00:13:57;;;;;;;0.40;0.40;;;;;;;14.42;84.68;96440.03;29395;202;63009;-57
2021/07/15 00:14:29;;;;;;;0.40;0.40;;;;;;;14.41;84.80;96438.44;29395;203;63004;-59
2021/07/15 00:15:01;;;;;;;0.40;0.40;;;;;;;14.41;84.49;96438.44;29395;211;63009;-60
2021/07/15 00:15:35;;;;;;;0.40;0.40;;;;;;;14.39;84.33;96437.94;29395;277;63009;-59
2021/07/15 00:16:09;;;;;;;0.40;0.40;;;;;;;14.39;84.90;96446.12;29395;227;63009;-60
2021/07/15 00:16:41;;;;;;;0.40;0.40;;;;;;;14.37;85.03;96437.47;29395;209;63005;-60
2021/07/15 00:17:12;;;;;;;0.40;0.40;;;;;;;14.37;84.50;96441.00;29395;294;63012;-59
2021/07/15 00:17:44;;;;;;;0.40;0.40;;;;;;;14.37;84.77;96440.19;29395;333;63005;-60
2021/07/15 00:18:18;;;;;;;0.40;0.40;;;;;;;14.36;84.50;96446.78;29394;237;64013;-59
2021/07/15 00:18:51;;;;;;;0.40;0.40;;;;;;;14.36;84.59;96441.31;29395;272;63005;-60
2021/07/15 00:19:27;;;;;;;0.40;0.40;;;;;;;14.33;85.02;96434.59;29395;206;63009;-58
2021/07/15 00:19:58;;;;;;;0.40;0.40;;;;;;;14.30;85.71;96434.44;29395;241;63005;-59
2021/07/15 00:20:29;;;;;;;0.40;0.40;;;;;;;14.29;86.09;96435.56;29395;323;63009;-59
2021/07/15 00:21:05;;;;;;;0.40;0.40;;;;;;;14.27;85.71;96438.62;29395;256;63004;-59
2021/07/15 00:21:37;;;;;;;0.47;0.47;;;;;;;14.27;85.53;96443.28;29395;265;63009;-57
2021/07/15 00:22:08;;;;;;;0.40;0.40;;;;;;;14.27;85.58;96437.81;29395;215;63004;-58
2021/07/15 00:22:40;;;;;;;0.40;0.40;;;;;;;14.28;85.40;96442.16;29395;349;63009;-60
2021/07/15 00:23:12;;;;;;;0.40;0.40;;;;;;;14.28;85.83;96439.41;29395;209;63004;-60
2021/07/15 00:23:48;;;;;;;0.40;0.40;;;;;;;14.27;86.00;96437.81;29394;263;64014;-59
2021/07/15 00:24:20;;;;;;;0.50;0.50;;;;;;;14.24;86.11;96435.75;29395;254;63005;-59
2021/07/15 00:24:52;;;;;;;0.50;0.50;;;;;;;14.23;85.63;96431.41;29395;209;63009;-59
2021/07/15 00:25:24;;;;;;;0.40;0.40;;;;;;;14.21;86.42;96433.66;29395;268;63017;-59
2021/07/15 00:25:55;;;;;;;0.40;0.40;;;;;;;14.17;86.65;96427.28;29395;198;63009;-60
2021/07/15 00:26:27;;;;;;;0.43;0.43;;;;;;;14.16;86.55;96433.87;29395;235;63005;-59
2021/07/15 00:26:58;;;;;;;0.40;0.40;;;;;;;14.15;86.48;96435.00;29395;333;63009;-58
2021/07/15 00:27:29;;;;;;;0.40;0.40;;;;;;;14.14;86.74;96433.37;29395;205;63009;-59
2021/07/15 00:28:01;;;;;;;0.40;0.40;;;;;;;14.15;86.50;96432.25;29395;204;63019;-59
2021/07/15 00:28:32;;;;;;;0.40;0.40;;;;;;;14.14;86.23;96430.66;29394;242;64009;-61
2021/07/15 00:29:05;;;;;;;0.40;0.40;;;;;;;14.15;86.17;96429.53;29395;214;63009;-60
2021/07/15 00:29:38;;;;;;;0.40;0.40;;;;;;;14.19;86.33;96430.50;29395;196;63004;-59
2021/07/15 00:30:14;;;;;;;0.40;0.40;;;;;;;14.20;85.96;96437.53;29395;214;63004;-58
2021/07/15 00:30:46;;;;;;;0.40;0.40;;;;;;;14.17;86.25;96432.75;29395;252;63004;-58
2021/07/15 00:31:18;;;;;;;0.40;0.40;;;;;;;14.15;86.35;96429.53;29395;250;63009;-60
2021/07/15 00:31:49;;;;;;;0.40;0.40;;;;;;;14.21;86.33;96436.38;29395;198;63005;-68
2021/07/15 00:32:21;;;;;;;0.40;0.40;;;;;;;14.22;85.85;96425.16;29395;240;63021;-59
2021/07/15 00:32:53;;;;;;;0.40;0.40;;;;;;;14.21;86.05;96428.22;29395;225;63005;-59
2021/07/15 00:33:28;;;;;;;0.40;0.40;;;;;;;14.19;86.08;96425.84;29394;307;64013;-60
2021/07/15 00:33:59;;;;;;;0.40;0.40;;;;;;;14.18;85.93;96424.22;29395;228;63005;-59
2021/07/15 00:34:30;;;;;;;0.40;0.40;;;;;;;14.17;85.87;96432.75;29394;300;64009;-60
2021/07/15 00:35:03;;;;;;;0.50;0.50;;;;;;;14.22;86.11;96429.81;29395;212;63005;-57
2021/07/15 00:35:38;;;;;;;0.43;0.43;;;;;;;14.20;85.88;96426.63;29395;224;63012;-60
2021/07/15 00:36:09;;;;;;;0.47;0.47;;;;;;;14.24;86.34;96427.56;29395;200;63004;-59
2021/07/15 00:36:41;;;;;;;0.50;0.50;;;;;;;14.21;86.14;96433.66;29395;245;63017;-59
2021/07/15 00:37:12;;;;;;;0.45;0.45;;;;;;;14.17;86.45;96428.09;29395;210;63006;-59
2021/07/15 00:37:45;;;;;;;0.40;0.40;;;;;;;14.12;86.73;96424.72;29395;202;63009;-60
2021/07/15 00:38:19;;;;;;;0.40;0.40;;;;;;;14.12;86.50;96419.28;29394;292;64008;-59
2021/07/15 00:38:50;;;;;;;0.40;0.40;;;;;;;14.08;86.62;96425.38;29395;320;63009;-58
2021/07/15 00:39:21;;;;;;;0.43;0.43;;;;;;;14.05;87.08;96420.56;29395;202;63005;-59
2021/07/15 00:39:53;;;;;;;0.40;0.40;;;;;;;14.04;87.14;96431.81;29395;216;63009;-60
2021/07/15 00:40:24;;;;;;;0.50;0.50;;;;;;;14.01;87.75;96419.63;29395;240;63005;-59
2021/07/15 00:40:56;;;;;;;0.50;0.50;;;;;;;14.00;87.92;96423.47;29395;208;63009;-60
2021/07/15 00:41:27;;;;;;;0.50;0.50;;;;;;;14.01;87.59;96425.06;29395;212;63005;-59
2021/07/15 00:41:58;;;;;;;0.50;0.50;;;;;;;13.99;87.45;96430.06;29395;225;63009;-60
2021/07/15 00:42:29;;;;;;;0.50;0.50;;;;;;;14.01;87.62;96430.53;29395;220;63005;-61
2021/07/15 00:43:00;;;;;;;0.43;0.43;;;;;;;14.01;87.20;96425.06;29395;226;63009;-60
2021/07/15 00:43:32;;;;;;;0.50;0.50;;;;;;;14.01;87.38;96430.53;29394;219;64009;-60
2021/07/15 00:44:05;;;;;;;0.43;0.43;;;;;;;14.00;87.33;96420.75;29395;246;63009;-59
2021/07/15 00:44:36;;;;;;;0.50;0.50;;;;;;;14.00;87.79;96426.19;29395;245;63004;-59
2021/07/15 00:45:10;;;;;;;0.50;0.50;;;;;;;14.01;87.73;96430.53;29395;231;63009;-59
2021/07/15 00:45:42;;;;;;;0.50;0.50;;;;;;;14.00;87.74;96423.47;29395;297;63004;-60
2021/07/15 00:46:13;;;;;;;0.50;0.50;;;;;;;14.00;87.52;96418.03;29395;199;63009;-59
2021/07/15 00:46:44;;;;;;;0.40;0.40;;;;;;;14.02;87.66;96426.69;29395;276;63005;-59
2021/07/15 00:47:16;;;;;;;0.50;0.50;;;;;;;14.02;87.73;96420.44;29395;226;63009;-59
2021/07/15 00:47:49;;;;;;;0.40;0.40;;;;;;;14.01;88.06;96425.06;29395;231;63005;-60
2021/07/15 00:48:21;;;;;;;0.50;0.50;;;;;;;14.04;87.88;96427.16;29394;210;64013;-59
2021/07/15 00:48:53;;;;;;;0.40;0.40;;;;;;;14.05;87.90;96426.03;29395;236;63005;-58
2021/07/15 00:49:24;;;;;;;0.40;0.40;;;;;;;14.05;87.58;96420.56;29395;301;63009;-60
2021/07/15 00:49:56;;;;;;;0.40;0.40;;;;;;;14.03;87.55;96416.56;29395;232;63005;-59
2021/07/15 00:50:27;;;;;;;0.40;0.40;;;;;;;14.01;87.50;96416.91;29395;261;63023;-59
2021/07/15 00:50:59;;;;;;;0.40;0.40;;;;;;;14.00;87.76;96417.22;29395;198;63004;-59
2021/07/15 00:51:31;;;;;;;0.40;0.40;;;;;;;13.99;87.83;96410.16;29395;235;63009;-58
2021/07/15 00:52:03;;;;;;;0.40;0.40;;;;;;;13.97;88.19;96418.66;29395;244;63003;-61
2021/07/15 00:52:35;;;;;;;0.40;0.40;;;;;;;13.98;87.98;96414.81;29395;218;63019;-59
2021/07/15 00:53:08;;;;;;;0.40;0.40;;;;;;;13.96;87.86;96421.72;29395;230;63004;-60
2021/07/15 00:53:40;;;;;;;0.40;0.40;;;;;;;13.96;87.84;96417.06;29394;218;64013;-59
2021/07/15 00:54:12;;;;;;;0.40;0.40;;;;;;;13.95;87.82;96410.00;29395;269;63005;-59
2021/07/15 00:54:45;;;;;;;0.40;0.40;;;;;;;13.96;87.55;96416.28;29395;258;63009;-57
2021/07/15 00:55:26;;;;;;;0.40;0.40;;;;;;;13.96;87.37;96419.78;29394;218;64009;-60
2021/07/15 00:55:58;;;;;;;0.40;0.40;;;;;;;13.95;87.77;96412.75;29395;275;63009;-58
2021/07/15 00:56:30;;;;;;;0.50;0.50;;;;;;;13.93;88.11;96416.91;29395;198;63005;-60
2021/07/15 00:57:02;;;;;;;0.40;0.40;;;;;;;13.93;88.35;96412.25;29395;203;63015;-60
2021/07/15 00:57:35;;;;;;;0.40;0.40;;;;;;;13.93;88.07;96416.91;29395;286;63010;-60
2021/07/15 00:58:08;;;;;;;0.45;0.45;;;;;;;13.95;87.69;96420.91;29395;240;63009;-60
2021/07/15 00:58:40;;;;;;;0.45;0.45;;;;;;;13.94;87.63;96416.59;29395;206;63004;-59
2021/07/15 00:59:11;;;;;;;0.40;0.40;;;;;;;13.92;87.37;96421.56;29395;282;63009;-59
2021/07/15 00:59:43;;;;;;;0.40;0.40;;;;;;;13.96;87.37;96419.00;29395;222;63004;-61
2021/07/15 01:00:16;;;;;;;0.40;0.40;;;;;;;13.98;87.71;96420.28;29394;212;64013;-60
2021/07/15 01:00:49;;;;;;;0.40;0.40;;;;;;;13.96;87.40;96422.53;29395;232;63004;-59
2021/07/15 01:01:21;;;;;;;0.40;0.40;;;;;;;13.94;87.64;96424.78;29395;221;63009;-59
2021/07/15 01:01:52;;;;;;;0.40;0.40;;;;;;;13.90;88.09;96418.37;29395;257;63005;-58
2021/07/15 01:02:23;;;;;;;0.50;0.50;;;;;;;13.94;87.58;96408.41;29395;236;63009;-59
2021/07/15 01:02:56;;;;;;;0.40;0.40;;;;;;;13.91;87.70;96411.78;29394;217;64023;-60
2021/07/15 01:03:27;;;;;;;0.50;0.50;;;;;;;13.91;87.57;96414.50;29395;290;63009;-60
2021/07/15 01:03:58;;;;;;;0.50;0.50;;;;;;;13.90;88.04;96418.37;29395;252;63005;-60
2021/07/15 01:04:29;;;;;;;0.40;0.40;;;;;;;13.87;88.53;96419.00;29395;264;63009;-58
2021/07/15 01:05:17;;;;;;;0.50;0.50;;;;;;;13.88;88.34;96412.44;29395;197;63004;-59
2021/07/15 01:05:54;;;;;;;0.50;0.50;;;;;;;13.87;87.74;96416.28;29395;203;63009;-59
2021/07/15 01:06:25;;;;;;;0.50;0.50;;;;;;;13.86;88.31;96417.41;29394;204;64009;-59
2021/07/15 01:06:56;;;;;;;0.50;0.50;;;;;;;13.87;88.45;96407.31;29395;305;63009;-58
2021/07/15 01:07:27;;;;;;;0.50;0.50;;;;;;;13.85;88.67;96421.28;29395;232;63004;-59
2021/07/15 01:07:59;;;;;;;0.40;0.40;;;;;;;13.85;88.48;96415.03;29395;220;63008;-59
2021/07/15 01:08:31;;;;;;;0.50;0.50;;;;;;;13.83;88.40;96411.84;29395;322;63005;-59
2021/07/15 01:09:03;;;;;;;0.50;0.50;;;;;;;13.81;88.78;96414.88;29395;238;63009;-59
2021/07/15 01:09:35;;;;;;;0.45;0.45;;;;;;;13.80;89.11;96413.28;29395;249;63005;-58
2021/07/15 01:10:08;;;;;;;0.50;0.50;;;;;;;13.79;88.98;96417.13;29395;207;63009;-58
2021/07/15 01:10:51;;;;;;;0.50;0.50;;;;;;;13.80;89.24;96413.28;29395;264;63005;-60
2021/07/15 01:11:35;;;;;;;0.50;0.50;;;;;;;13.77;89.12;96413.94;29394;199;64013;-59
2021/07/15 01:12:54;;;;;;;0.50;0.50;;;;;;;13.76;88.96;96412.31;29395;285;63007;-59
2021/07/15 01:13:57;;;;;;;0.50;0.50;;;;;;;13.75;88.88;96416.19;29395;252;63009;-60
2021/07/15 01:14:36;;;;;;;0.50;0.50;;;;;;;13.76;89.04;96420.50;29394;247;64009;-60
2021/07/15 01:15:11;;;;;;;0.50;0.50;;;;;;;13.77;88.68;96419.37;29395;260;63008;-59
2021/07/15 01:16:20;;;;;;;0.50;0.50;;;;;;;13.78;88.91;96415.53;29395;304;63005;-59
2021/07/15 01:17:08;;;;;;;0.43;0.43;;;;;;;13.80;88.54;96418.72;29395;255;63005;-60
2021/07/15 01:17:57;;;;;;;0.50;0.50;;;;;;;13.85;88.85;96420.50;29395;242;63009;-59
2021/07/15 01:19:06;;;;;;;0.45;0.45;;;;;;;13.84;89.01;96416.97;29394;199;64009;-59
2021/07/15 01:20:08;;;;;;;0.50;0.50;;;;;;;13.82;88.82;96421.13;29395;215;63009;-59
2021/07/15 01:21:19;;;;;;;0.50;0.50;;;;;;;13.82;89.15;96416.50;29416;304;64009;-60
2021/07/15 01:22:12;;;;;;;0.40;0.40;;;;;;;13.81;88.76;96414.88;29395;232;63009;-60
2021/07/15 01:23:11;;;;;;;0.50;0.50;;;;;;;13.79;88.91;96416.34;29395;202;63008;-59
2021/07/15 01:24:19;;;;;;;0.50;0.50;;;;;;;13.77;88.96;96413.94;29394;204;64009;-59
2021/07/15 01:25:42;;;;;;;0.50;0.50;;;;;;;13.78;89.50;96410.06;29394;231;64005;-58
2021/07/15 01:27:04;;;;;;;0.50;0.50;;;;;;;13.74;90.07;96414.56;29417;212;63019;-60
2021/07/15 01:28:20;;;;;;;0.50;0.50;;;;;;;13.74;89.62;96412.66;29416;223;64009;-59
2021/07/15 01:29:47;;;;;;;0.50;0.50;;;;;;;13.74;89.34;96420.03;29395;205;63004;-59
2021/07/15 01:30:48;;;;;;;0.50;0.50;;;;;;;13.71;90.12;96404.31;29394;234;64008;-59
2021/07/15 01:31:22;;;;;;;0.50;0.50;;;;;;;13.71;90.03;96415.22;29395;206;63009;-59
2021/07/15 01:31:57;;;;;;;0.40;0.40;;;;;;;13.71;90.03;96404.31;29395;197;63010;-60
2021/07/15 01:32:37;;;;;;;0.50;0.50;;;;;;;13.70;89.37;96411.69;29395;241;63009;-59
2021/07/15 01:33:32;;;;;;;0.50;0.50;;;;;;;13.71;89.89;96404.31;29395;214;63005;-59
2021/07/15 01:34:09;;;;;;;0.50;0.50;;;;;;;13.72;89.57;96397.75;29395;245;63005;-58
2021/07/15 01:34:42;;;;;;;0.50;0.50;;;;;;;13.70;89.70;96402.72;29394;197;64013;-60
2021/07/15 01:35:19;;;;;;;0.50;0.50;;;;;;;13.69;89.87;96396.47;29395;198;63004;-60
2021/07/15 01:36:19;;;;;;;0.50;0.50;;;;;;;13.72;89.80;96390.34;29395;265;63009;-60
2021/07/15 01:36:55;;;;;;;0.50;0.50;;;;;;;13.72;89.61;96384.09;29395;208;63004;-60
2021/07/15 01:37:27;;;;;;;0.40;0.40;;;;;;;13.72;89.27;96390.34;29395;273;63008;-59
2021/07/15 01:38:01;;;;;;;0.40;0.40;;;;;;;13.72;89.53;96395.81;29395;290;63004;-59
2021/07/15 01:38:55;;;;;;;0.50;0.50;;;;;;;13.73;89.34;96391.16;29395;305;63009;-60
2021/07/15 01:39:33;;;;;;;0.40;0.40;;;;;;;13.75;89.23;96378.00;29394;346;64009;-59
2021/07/15 01:40:07;;;;;;;0.43;0.43;;;;;;;13.72;89.26;96384.09;29395;267;63009;-59
2021/07/15 01:41:02;;;;;;;0.40;0.40;;;;;;;13.69;89.03;96387.47;29395;206;63005;-60
2021/07/15 01:41:39;;;;;;;0.40;0.40;;;;;;;13.65;89.22;96383.78;29395;198;63009;-61
2021/07/15 01:42:14;;;;;;;0.50;0.50;;;;;;;13.62;89.74;96389.91;29395;202;63005;-60
2021/07/15 01:42:48;;;;;;;0.40;0.40;;;;;;;13.61;89.71;96391.03;29395;206;63009;-60
2021/07/15 01:43:29;;;;;;;0.40;0.40;;;;;;;13.61;89.74;96388.28;29395;202;63004;-59
2021/07/15 01:44:28;;;;;;;0.40;0.40;;;;;;;13.64;89.39;96390.38;29417;227;63009;-59
2021/07/15 01:45:00;;;;;;;0.40;0.40;;;;;;;13.64;89.47;96393.09;29394;208;64008;-60
2021/07/15 01:45:32;;;;;;;0.50;0.50;;;;;;;13.64;89.55;96398.56;29395;245;63008;-60
2021/07/15 01:46:05;;;;;;;0.50;0.50;;;;;;;13.64;89.84;96390.38;29395;316;63005;-59
2021/07/15 01:46:38;;;;;;;0.50;0.50;;;;;;;13.63;89.23;96386.03;29395;199;63009;-60
2021/07/15 01:47:09;;;;;;;0.50;0.50;;;;;;;13.60;89.87;96392.94;29395;297;63005;-59
2021/07/15 01:47:41;;;;;;;0.50;0.50;;;;;;;13.59;90.17;96391.34;29395;202;63009;-59
2021/07/15 01:48:13;;;;;;;0.50;0.50;;;;;;;13.58;90.17;96389.75;29395;226;63005;-59
2021/07/15 01:48:45;;;;;;;0.50;0.50;;;;;;;13.57;90.31;96390.06;29395;203;63009;-59
2021/07/15 01:49:18;;;;;;;0.50;0.50;;;;;;;13.58;90.49;96388.94;29395;204;63005;-59
2021/07/15 01:49:50;;;;;;;0.50;0.50;;;;;;;13.58;90.07;96388.94;29394;244;64013;-59
2021/07/15 01:50:22;;;;;;;0.40;0.40;;;;;;;13.59;90.22;96390.53;29395;250;63004;-59
2021/07/15 01:50:54;;;;;;;0.40;0.40;;;;;;;13.58;89.88;96389.75;29395;265;63009;-58
2021/07/15 01:51:26;;;;;;;0.50;0.50;;;;;;;13.61;89.83;96388.28;29395;228;63006;-59
2021/07/15 01:51:59;;;;;;;0.50;0.50;;;;;;;13.63;89.81;96386.03;29395;252;63009;-58
2021/07/15 01:52:30;;;;;;;0.50;0.50;;;;;;;13.61;90.17;96389.09;29395;206;63004;-60
2021/07/15 01:53:02;;;;;;;0.50;0.50;;;;;;;13.60;89.59;96386.69;29395;212;63015;-58
2021/07/15 01:53:35;;;;;;;0.50;0.50;;;;;;;13.59;90.21;96390.53;29395;253;63005;-60
2021/07/15 01:54:07;;;;;;;0.45;0.45;;;;;;;13.58;90.19;96391.66;29395;220;63025;-60
2021/07/15 01:54:39;;;;;;;0.50;0.50;;;;;;;13.56;90.06;96389.25;29395;198;63005;-59
2021/07/15 01:55:12;;;;;;;0.50;0.50;;;;;;;13.62;89.82;96384.44;29394;218;64013;-59
2021/07/15 01:55:44;;;;;;;0.50;0.50;;;;;;;13.61;89.61;96397.28;29395;198;63005;-60
2021/07/15 01:56:17;;;;;;;0.50;0.50;;;;;;;13.60;89.34;96398.41;29395;200;63009;-59
2021/07/15 01:56:50;;;;;;;0.50;0.50;;;;;;;13.58;89.47;96395.19;29395;258;63005;-60
2021/07/15 01:57:24;;;;;;;0.50;0.50;;;;;;;13.58;89.34;96394.38;29395;258;63009;-59
2021/07/15 01:57:57;;;;;;;0.50;0.50;;;;;;;13.57;89.48;96392.78;29395;269;63004;-59
2021/07/15 01:58:31;;;;;;;0.50;0.50;;;;;;;13.57;89.15;96403.69;29395;296;63009;-58
2021/07/15 01:59:06;;;;;;;0.40;0.40;;;;;;;13.56;89.78;96402.87;29395;218;63004;-59
2021/07/15 01:59:39;;;;;;;0.40;0.40;;;;;;;13.55;89.47;96403.22;29395;204;63009;-59
2021/07/15 02:00:12;;;;;;;0.40;0.40;;;;;;;13.55;89.34;96400.47;29394;213;64008;-59
2021/07/15 02:00:44;;;;;;;0.43;0.43;;;;;;;13.54;89.80;96398.88;29395;219;63008;-60
2021/07/15 02:01:18;;;;;;;0.40;0.40;;;;;;;13.56;89.69;96397.44;29395;199;63005;-58
2021/07/15 02:01:51;;;;;;;0.40;0.40;;;;;;;13.56;89.59;96402.09;29395;283;63009;-59
2021/07/15 02:02:25;;;;;;;0.40;0.40;;;;;;;13.55;89.89;96406.75;29395;220;63005;-58
2021/07/15 02:02:58;;;;;;;0.40;0.40;;;;;;;13.55;89.53;96403.22;29395;221;63016;-59
2021/07/15 02:03:31;;;;;;;0.50;0.50;;;;;;;13.54;90.06;96407.06;29395;204;63005;-59
2021/07/15 02:04:05;;;;;;;0.50;0.50;;;;;;;13.51;90.02;96399.56;29395;266;63009;-58
2021/07/15 02:04:38;;;;;;;0.50;0.50;;;;;;;13.50;90.17;96404.22;29395;276;63004;-60
2021/07/15 02:05:12;;;;;;;0.40;0.40;;;;;;;13.49;90.41;96401.81;29394;215;64013;-60
2021/07/15 02:05:46;;;;;;;0.50;0.50;;;;;;;13.49;90.72;96407.25;29395;214;63004;-59
2021/07/15 02:06:19;;;;;;;0.50;0.50;;;;;;;13.47;90.22;96398.59;29395;237;63009;-60
2021/07/15 02:06:55;;;;;;;0.50;0.50;;;;;;;13.48;90.50;96405.66;29395;229;63004;-60
2021/07/15 02:07:28;;;;;;;0.50;0.50;;;;;;;13.47;90.34;96396.69;29395;267;63008;-59
2021/07/15 02:08:01;;;;;;;0.50;0.50;;;;;;;13.47;90.18;96401.31;29395;269;63004;-59
2021/07/15 02:08:35;;;;;;;0.40;0.40;;;;;;;13.50;90.05;96395.22;29395;202;63009;-60
2021/07/15 02:09:10;;;;;;;0.50;0.50;;;;;;;13.50;89.94;96398.75;29395;324;63008;-59
2021/07/15 02:09:42;;;;;;;0.50;0.50;;;;;;;13.52;89.84;96395.69;29395;240;63022;-60
2021/07/15 02:10:20;;;;;;;0.50;0.50;;;;;;;13.52;90.06;96401.13;29394;206;64009;-61
2021/07/15 02:10:53;;;;;;;0.50;0.50;;;;;;;13.51;89.52;96396.84;29395;219;63009;-59
2021/07/15 02:11:33;;;;;;;0.50;0.50;;;;;;;13.51;89.82;96399.56;29395;216;63005;-59
2021/07/15 02:12:08;;;;;;;0.40;0.40;;;;;;;13.50;89.39;96396.03;29395;202;63009;-60
2021/07/15 02:12:40;;;;;;;0.50;0.50;;;;;;;13.52;90.02;96398.41;29395;265;63004;-60
2021/07/15 02:13:12;;;;;;;0.50;0.50;;;;;;;13.49;89.93;96391.69;29395;271;63009;-60
2021/07/15 02:13:45;;;;;;;0.40;0.40;;;;;;;13.48;90.04;96397.47;29395;213;63004;-59
2021/07/15 02:14:21;;;;;;;0.50;0.50;;;;;;;13.46;90.15;96397.00;29395;245;63008;-60
2021/07/15 02:14:55;;;;;;;0.40;0.40;;;;;;;13.46;90.71;96391.53;29395;206;63004;-59
2021/07/15 02:15:28;;;;;;;0.50;0.50;;;;;;;13.47;90.40;96393.16;29394;240;64014;-59
2021/07/15 02:16:00;;;;;;;0.50;0.50;;;;;;;13.47;90.48;96393.94;29395;206;63015;-60
2021/07/15 02:16:35;;;;;;;0.50;0.50;;;;;;;13.48;90.37;96390.09;29395;305;63009;-59
2021/07/15 02:17:08;;;;;;;0.50;0.50;;;;;;;13.50;90.17;96387.06;29395;226;63005;-60
2021/07/15 02:17:41;;;;;;;0.50;0.50;;;;;;;13.50;89.86;96382.41;29395;224;63009;-59
2021/07/15 02:18:21;;;;;;;0.50;0.50;;;;;;;13.52;90.06;96379.31;29395;222;63005;-61
2021/07/15 02:18:54;;;;;;;0.50;0.50;;;;;;;13.54;89.99;96377.06;29395;225;63009;-58
2021/07/15 02:19:26;;;;;;;0.50;0.50;;;;;;;13.53;90.09;96378.19;29395;243;63004;-59
2021/07/15 02:19:57;;;;;;;0.50;0.50;;;;;;;13.57;89.69;96377.22;29395;224;63009;-59
2021/07/15 02:20:32;;;;;;;0.50;0.50;;;;;;;13.58;89.65;96381.56;29394;208;64001;-60
2021/07/15 02:21:04;;;;;;;0.50;0.50;;;;;;;13.56;89.32;96378.34;29395;199;63009;-59
2021/07/15 02:21:38;;;;;;;0.50;0.50;;;;;;;13.56;89.76;96383.00;29395;254;63017;-59
2021/07/15 02:22:14;;;;;;;0.50;0.50;;;;;;;13.55;89.36;96378.69;29395;220;63008;-61
2021/07/15 02:22:46;;;;;;;0.50;0.50;;;;;;;13.56;89.31;96383.00;29395;216;63005;-59
2021/07/15 02:23:18;;;;;;;0.47;0.47;;;;;;;13.55;89.13;96384.94;29395;216;63009;-58
2021/07/15 02:23:50;;;;;;;0.50;0.50;;;;;;;13.54;89.40;96387.97;29395;227;63005;-58
2021/07/15 02:24:24;;;;;;;0.50;0.50;;;;;;;13.48;89.47;96378.41;29395;213;63022;-58
2021/07/15 02:24:56;;;;;;;0.50;0.50;;;;;;;13.46;89.66;96388.81;29395;234;63005;-59
2021/07/15 02:25:29;;;;;;;0.40;0.40;;;;;;;13.46;89.76;96388.81;29394;206;64013;-58
2021/07/15 02:26:03;;;;;;;0.50;0.50;;;;;;;13.51;89.30;96388.66;29395;212;63005;-62
2021/07/15 02:26:37;;;;;;;0.45;0.45;;;;;;;13.54;89.53;96382.53;29395;204;63009;-59
2021/07/15 02:27:10;;;;;;;0.50;0.50;;;;;;;13.55;89.28;96392.31;29395;225;63004;-58
2021/07/15 02:27:43;;;;;;;0.50;0.50;;;;;;;13.55;89.37;96387.66;29395;238;63009;-59
2021/07/15 02:28:15;;;;;;;0.40;0.40;;;;;;;13.55;89.20;96389.59;29395;235;63004;-59
2021/07/15 02:28:46;;;;;;;0.50;0.50;;;;;;;13.56;89.05;96388.47;29395;220;63009;-59
2021/07/15 02:29:18;;;;;;;0.50;0.50;;;;;;;13.55;89.27;96389.59;29395;271;63004;-58
2021/07/15 02:29:49;;;;;;;0.50;0.50;;;;;;;13.54;89.17;96387.97;29395;223;63008;-60
2021/07/15 02:30:21;;;;;;;0.45;0.45;;;;;;;13.51;89.53;96394.09;29395;227;63005;-58
2021/07/15 02:31:02;;;;;;;0.50;0.50;;;;;;;13.52;89.63;96392.94;29394;204;64014;-60
2021/07/15 02:31:46;;;;;;;0.50;0.50;;;;;;;13.52;89.47;96396.47;29417;224;63010;-60
2021/07/15 02:32:17;;;;;;;0.50;0.50;;;;;;;13.51;89.49;96394.09;29395;219;63009;-59
2021/07/15 02:33:01;;;;;;;0.40;0.40;;;;;;;13.54;89.05;96398.88;29395;242;63005;-59
2021/07/15 02:33:32;;;;;;;0.50;0.50;;;;;;;13.52;88.87;96401.13;29395;281;63009;-58
2021/07/15 02:34:10;;;;;;;0.50;0.50;;;;;;;13.50;89.01;96403.41;29395;204;63005;-58
2021/07/15 02:35:00;;;;;;;0.50;0.50;;;;;;;13.49;89.03;96404.53;29395;202;63009;-60
2021/07/15 02:35:42;;;;;;;0.50;0.50;;;;;;;13.47;89.46;96399.41;29416;252;64009;-60
2021/07/15 02:36:14;;;;;;;0.50;0.50;;;;;;;13.46;89.46;96397.00;29417;223;63009;-59
2021/07/15 02:36:47;;;;;;;0.50;0.50;;;;;;;13.45;89.99;96396.19;29395;276;63004;-59
2021/07/15 02:37:22;;;;;;;0.50;0.50;;;;;;;13.45;89.62;96400.84;29395;211;63008;-60
2021/07/15 02:37:57;;;;;;;0.40;0.40;;;;;;;13.47;89.47;96398.59;29395;210;63005;-60
2021/07/15 02:38:32;;;;;;;0.50;0.50;;;;;;;13.49;89.39;96399.06;29395;240;63009;-59
2021/07/15 02:39:06;;;;;;;0.50;0.50;;;;;;;13.49;89.36;96390.91;29395;237;63005;-58
2021/07/15 02:39:38;;;;;;;0.50;0.50;;;;;;;13.49;89.07;96397.16;29395;217;63009;-58
2021/07/15 02:40:15;;;;;;;0.40;0.40;;;;;;;13.47;89.61;96393.16;29395;272;63005;-60
2021/07/15 02:40:46;;;;;;;0.50;0.50;;;;;;;13.46;89.34;96397.00;29394;207;64013;-58
2021/07/15 02:41:18;;;;;;;0.40;0.40;;;;;;;13.46;89.64;96403.25;29395;238;63005;-59
2021/07/15 02:41:49;;;;;;;0.40;0.40;;;;;;;13.46;89.34;96397.00;29395;207;63009;-60
2021/07/15 02:42:20;;;;;;;0.50;0.50;;;;;;;13.47;89.88;96401.31;29395;231;63004;-60
2021/07/15 02:42:55;;;;;;;0.40;0.40;;;;;;;13.46;89.86;96397.00;29395;301;63009;-59
2021/07/15 02:43:26;;;;;;;0.43;0.43;;;;;;;13.45;90.27;96395.41;29395;203;63004;-60
2021/07/15 02:43:58;;;;;;;0.50;0.50;;;;;;;13.44;89.91;96405.50;29395;218;63009;-58
2021/07/15 02:44:29;;;;;;;0.50;0.50;;;;;;;13.41;90.04;96401.50;29395;207;63004;-60
2021/07/15 02:45:01;;;;;;;0.50;0.50;;;;;;;13.41;89.74;96404.22;29395;197;63008;-59
2021/07/15 02:45:32;;;;;;;0.50;0.50;;;;;;;13.44;89.45;96405.50;29394;199;64009;-59
2021/07/15 02:46:03;;;;;;;0.50;0.50;;;;;;;13.46;89.30;96405.16;29395;232;63009;-58
2021/07/15 02:46:36;;;;;;;0.50;0.50;;;;;;;13.48;89.65;96402.94;29395;216;63007;-59
2021/07/15 02:47:08;;;;;;;0.50;0.50;;;;;;;13.50;89.16;96403.41;29395;269;63009;-59
2021/07/15 02:47:41;;;;;;;0.50;0.50;;;;;;;13.49;89.04;96401.81;29395;273;63005;-58
2021/07/15 02:48:16;;;;;;;0.50;0.50;;;;;;;13.47;89.17;96404.84;29395;268;63009;-59
2021/07/15 02:48:48;;;;;;;0.50;0.50;;;;;;;13.44;89.34;96401.97;29395;269;63005;-58
2021/07/15 02:49:19;;;;;;;0.50;0.50;;;;;;;13.43;89.40;96400.38;29395;226;63009;-59
2021/07/15 02:49:50;;;;;;;0.50;0.50;;;;;;;13.40;89.95;96399.88;29395;232;63004;-60